sensor_id;sensor_type;location;lat;lon;timestamp;P1;durP1;ratioP1;P2;durP2;ratioP2
39044;SDS011;52192;52.002;5.956;2023-05-07T00:00:02;1.73;;;1.15;;
39044;SDS011;52192;52.002;5.956;2023-05-07T00:02:28;1.00;;;1.00;;
39044;SDS011;52192;52.002;5.956;2023-05-07T00:04:54;1.45;;;1.02;;
39044;SDS011;52192;52.002;5.956;2023-05-07T00:07:20;5.18;;;1.27;;
39044;SDS011;52192;52.002;5.956;2023-05-07T00:09:46;1.17;;;1.08;;
39044;SDS011;52192;52.002;5.956;2023-05-07T00:12:12;1.30;;;1.20;;
39044;SDS011;52192;52.002;5.956;2023-05-07T00:14:37;0.95;;;0.88;;
39044;SDS011;52192;52.002;5.956;2023-05-07T00:17:03;1.55;;;1.42;;
39044;SDS011;52192;52.002;5.956;2023-05-07T00:19:29;5.25;;;1.15;;
39044;SDS011;52192;52.002;5.956;2023-05-07T00:21:54;2.25;;;1.20;;
39044;SDS011;52192;52.002;5.956;2023-05-07T00:24:24;2.83;;;1.17;;
39044;SDS011;52192;52.002;5.956;2023-05-07T00:26:49;1.52;;;1.17;;
39044;SDS011;52192;52.002;5.956;2023-05-07T00:29:16;1.15;;;1.00;;
39044;SDS011;52192;52.002;5.956;2023-05-07T00:31:41;1.40;;;1.20;;
39044;SDS011;52192;52.002;5.956;2023-05-07T00:34:07;1.38;;;1.27;;
39044;SDS011;52192;52.002;5.956;2023-05-07T00:36:33;1.10;;;0.90;;
39044;SDS011;52192;52.002;5.956;2023-05-07T00:38:59;1.35;;;1.17;;
39044;SDS011;52192;52.002;5.956;2023-05-07T00:41:27;3.35;;;2.20;;
39044;SDS011;52192;52.002;5.956;2023-05-07T00:43:52;1.30;;;1.20;;
39044;SDS011;52192;52.002;5.956;2023-05-07T00:46:19;1.35;;;1.20;;
39044;SDS011;52192;52.002;5.956;2023-05-07T00:48:46;2.58;;;1.60;;
39044;SDS011;52192;52.002;5.956;2023-05-07T00:51:13;2.08;;;1.20;;
39044;SDS011;52192;52.002;5.956;2023-05-07T00:53:38;3.05;;;1.48;;
39044;SDS011;52192;52.002;5.956;2023-05-07T00:56:05;1.20;;;1.10;;
39044;SDS011;52192;52.002;5.956;2023-05-07T00:58:31;2.55;;;1.27;;
39044;SDS011;52192;52.002;5.956;2023-05-07T01:00:58;3.10;;;1.73;;
39044;SDS011;52192;52.002;5.956;2023-05-07T01:03:25;1.00;;;0.90;;
39044;SDS011;52192;52.002;5.956;2023-05-07T01:05:51;3.75;;;1.20;;
39044;SDS011;52192;52.002;5.956;2023-05-07T01:08:18;1.63;;;1.52;;
39044;SDS011;52192;52.002;5.956;2023-05-07T01:10:45;2.63;;;1.40;;
39044;SDS011;52192;52.002;5.956;2023-05-07T01:13:11;2.45;;;1.30;;
39044;SDS011;52192;52.002;5.956;2023-05-07T01:15:38;2.70;;;1.42;;
39044;SDS011;52192;52.002;5.956;2023-05-07T01:18:06;1.52;;;1.35;;
39044;SDS011;52192;52.002;5.956;2023-05-07T01:20:32;1.88;;;1.52;;
39044;SDS011;52192;52.002;5.956;2023-05-07T01:22:58;1.50;;;1.40;;
39044;SDS011;52192;52.002;5.956;2023-05-07T01:25:26;1.25;;;1.15;;
39044;SDS011;52192;52.002;5.956;2023-05-07T01:27:52;2.25;;;1.30;;
39044;SDS011;52192;52.002;5.956;2023-05-07T01:30:18;1.52;;;1.35;;
39044;SDS011;52192;52.002;5.956;2023-05-07T01:32:59;2.45;;;1.60;;
39044;SDS011;52192;52.002;5.956;2023-05-07T01:35:27;2.22;;;1.85;;
39044;SDS011;52192;52.002;5.956;2023-05-07T01:37:57;1.42;;;1.15;;
39044;SDS011;52192;52.002;5.956;2023-05-07T01:40:24;1.33;;;0.98;;
39044;SDS011;52192;52.002;5.956;2023-05-07T01:42:51;1.85;;;1.60;;
39044;SDS011;52192;52.002;5.956;2023-05-07T01:45:18;2.10;;;1.80;;
39044;SDS011;52192;52.002;5.956;2023-05-07T01:47:44;1.67;;;1.30;;
39044;SDS011;52192;52.002;5.956;2023-05-07T01:50:10;2.25;;;1.70;;
39044;SDS011;52192;52.002;5.956;2023-05-07T01:52:37;6.72;;;1.75;;
39044;SDS011;52192;52.002;5.956;2023-05-07T01:55:04;3.38;;;2.08;;
39044;SDS011;52192;52.002;5.956;2023-05-07T01:57:30;1.95;;;1.58;;
39044;SDS011;52192;52.002;5.956;2023-05-07T01:59:56;2.08;;;1.48;;
39044;SDS011;52192;52.002;5.956;2023-05-07T02:02:22;1.55;;;1.38;;
39044;SDS011;52192;52.002;5.956;2023-05-07T02:04:47;2.03;;;1.40;;
39044;SDS011;52192;52.002;5.956;2023-05-07T02:07:13;2.90;;;1.63;;
39044;SDS011;52192;52.002;5.956;2023-05-07T02:09:39;2.03;;;1.40;;
39044;SDS011;52192;52.002;5.956;2023-05-07T02:12:05;1.60;;;1.33;;
39044;SDS011;52192;52.002;5.956;2023-05-07T02:14:31;2.90;;;1.60;;
39044;SDS011;52192;52.002;5.956;2023-05-07T02:16:56;1.85;;;1.60;;
39044;SDS011;52192;52.002;5.956;2023-05-07T02:19:22;1.52;;;1.42;;
39044;SDS011;52192;52.002;5.956;2023-05-07T02:21:48;1.90;;;1.52;;
39044;SDS011;52192;52.002;5.956;2023-05-07T02:24:16;1.67;;;1.30;;
39044;SDS011;52192;52.002;5.956;2023-05-07T02:26:42;1.88;;;1.58;;
39044;SDS011;52192;52.002;5.956;2023-05-07T02:29:08;1.83;;;1.50;;
39044;SDS011;52192;52.002;5.956;2023-05-07T02:31:33;1.70;;;1.23;;
39044;SDS011;52192;52.002;5.956;2023-05-07T02:33:59;2.08;;;1.30;;
39044;SDS011;52192;52.002;5.956;2023-05-07T02:36:25;2.00;;;1.60;;
39044;SDS011;52192;52.002;5.956;2023-05-07T02:38:51;2.42;;;2.05;;
39044;SDS011;52192;52.002;5.956;2023-05-07T02:41:17;3.05;;;2.10;;
39044;SDS011;52192;52.002;5.956;2023-05-07T02:43:43;1.50;;;1.23;;
39044;SDS011;52192;52.002;5.956;2023-05-07T02:46:09;1.27;;;1.17;;
39044;SDS011;52192;52.002;5.956;2023-05-07T02:48:35;1.90;;;1.70;;
39044;SDS011;52192;52.002;5.956;2023-05-07T02:51:01;2.83;;;1.63;;
39044;SDS011;52192;52.002;5.956;2023-05-07T02:53:28;1.83;;;1.45;;
39044;SDS011;52192;52.002;5.956;2023-05-07T02:55:57;3.20;;;1.85;;
39044;SDS011;52192;52.002;5.956;2023-05-07T02:58:25;1.30;;;1.20;;
39044;SDS011;52192;52.002;5.956;2023-05-07T03:00:51;1.60;;;1.45;;
39044;SDS011;52192;52.002;5.956;2023-05-07T03:03:17;1.83;;;1.50;;
39044;SDS011;52192;52.002;5.956;2023-05-07T03:05:43;2.33;;;1.58;;
39044;SDS011;52192;52.002;5.956;2023-05-07T03:08:09;1.85;;;1.65;;
39044;SDS011;52192;52.002;5.956;2023-05-07T03:10:35;1.73;;;1.58;;
39044;SDS011;52192;52.002;5.956;2023-05-07T03:13:02;2.13;;;1.55;;
39044;SDS011;52192;52.002;5.956;2023-05-07T03:15:28;1.92;;;1.25;;
39044;SDS011;52192;52.002;5.956;2023-05-07T03:17:54;2.72;;;1.77;;
39044;SDS011;52192;52.002;5.956;2023-05-07T03:20:20;1.73;;;1.27;;
39044;SDS011;52192;52.002;5.956;2023-05-07T03:22:46;2.10;;;1.63;;
39044;SDS011;52192;52.002;5.956;2023-05-07T03:25:11;3.67;;;2.10;;
39044;SDS011;52192;52.002;5.956;2023-05-07T03:27:39;2.35;;;1.95;;
39044;SDS011;52192;52.002;5.956;2023-05-07T03:30:05;3.83;;;1.92;;
39044;SDS011;52192;52.002;5.956;2023-05-07T03:32:31;5.03;;;1.83;;
39044;SDS011;52192;52.002;5.956;2023-05-07T03:34:58;2.75;;;2.08;;
39044;SDS011;52192;52.002;5.956;2023-05-07T03:37:23;1.65;;;1.33;;
39044;SDS011;52192;52.002;5.956;2023-05-07T03:39:49;4.22;;;1.85;;
39044;SDS011;52192;52.002;5.956;2023-05-07T03:42:15;3.58;;;1.60;;
39044;SDS011;52192;52.002;5.956;2023-05-07T03:44:44;2.53;;;1.63;;
39044;SDS011;52192;52.002;5.956;2023-05-07T03:47:13;2.78;;;1.90;;
39044;SDS011;52192;52.002;5.956;2023-05-07T03:49:39;3.15;;;1.90;;
39044;SDS011;52192;52.002;5.956;2023-05-07T03:52:05;2.78;;;1.77;;
39044;SDS011;52192;52.002;5.956;2023-05-07T03:54:31;1.90;;;1.60;;
39044;SDS011;52192;52.002;5.956;2023-05-07T03:56:57;2.58;;;1.83;;
39044;SDS011;52192;52.002;5.956;2023-05-07T03:59:23;2.72;;;2.15;;
39044;SDS011;52192;52.002;5.956;2023-05-07T04:01:49;4.10;;;2.28;;
39044;SDS011;52192;52.002;5.956;2023-05-07T04:04:14;2.90;;;2.03;;
39044;SDS011;52192;52.002;5.956;2023-05-07T04:06:40;2.40;;;1.92;;
39044;SDS011;52192;52.002;5.956;2023-05-07T04:09:07;3.63;;;2.55;;
39044;SDS011;52192;52.002;5.956;2023-05-07T04:11:32;2.30;;;1.85;;
39044;SDS011;52192;52.002;5.956;2023-05-07T04:13:58;2.83;;;1.92;;
39044;SDS011;52192;52.002;5.956;2023-05-07T04:16:26;2.38;;;1.60;;
39044;SDS011;52192;52.002;5.956;2023-05-07T04:18:52;1.92;;;1.67;;
39044;SDS011;52192;52.002;5.956;2023-05-07T04:21:18;3.30;;;2.05;;
39044;SDS011;52192;52.002;5.956;2023-05-07T04:23:46;2.22;;;1.63;;
39044;SDS011;52192;52.002;5.956;2023-05-07T04:26:12;2.38;;;2.10;;
39044;SDS011;52192;52.002;5.956;2023-05-07T04:28:38;2.88;;;1.98;;
39044;SDS011;52192;52.002;5.956;2023-05-07T04:31:05;2.65;;;1.85;;
39044;SDS011;52192;52.002;5.956;2023-05-07T04:33:31;2.60;;;2.08;;
39044;SDS011;52192;52.002;5.956;2023-05-07T04:36:02;3.15;;;2.13;;
39044;SDS011;52192;52.002;5.956;2023-05-07T04:38:31;2.67;;;1.80;;
39044;SDS011;52192;52.002;5.956;2023-05-07T04:40:58;3.35;;;1.80;;
39044;SDS011;52192;52.002;5.956;2023-05-07T04:43:29;2.78;;;1.80;;
39044;SDS011;52192;52.002;5.956;2023-05-07T04:45:54;2.15;;;1.80;;
39044;SDS011;52192;52.002;5.956;2023-05-07T04:48:20;2.90;;;1.80;;
39044;SDS011;52192;52.002;5.956;2023-05-07T04:50:49;3.22;;;1.73;;
39044;SDS011;52192;52.002;5.956;2023-05-07T04:53:16;3.08;;;2.03;;
39044;SDS011;52192;52.002;5.956;2023-05-07T04:55:42;2.55;;;1.88;;
39044;SDS011;52192;52.002;5.956;2023-05-07T04:58:08;3.17;;;2.25;;
39044;SDS011;52192;52.002;5.956;2023-05-07T05:00:34;3.97;;;2.05;;
39044;SDS011;52192;52.002;5.956;2023-05-07T05:03:00;2.28;;;1.92;;
39044;SDS011;52192;52.002;5.956;2023-05-07T05:05:26;2.40;;;2.10;;
39044;SDS011;52192;52.002;5.956;2023-05-07T05:07:52;2.90;;;2.08;;
39044;SDS011;52192;52.002;5.956;2023-05-07T05:10:18;2.10;;;1.60;;
39044;SDS011;52192;52.002;5.956;2023-05-07T05:12:43;3.78;;;2.28;;
39044;SDS011;52192;52.002;5.956;2023-05-07T05:15:10;2.63;;;2.08;;
39044;SDS011;52192;52.002;5.956;2023-05-07T05:17:37;2.17;;;1.50;;
39044;SDS011;52192;52.002;5.956;2023-05-07T05:20:03;3.10;;;2.08;;
39044;SDS011;52192;52.002;5.956;2023-05-07T05:22:30;3.60;;;2.53;;
39044;SDS011;52192;52.002;5.956;2023-05-07T05:24:56;3.15;;;2.65;;
39044;SDS011;52192;52.002;5.956;2023-05-07T05:27:22;2.97;;;1.48;;
39044;SDS011;52192;52.002;5.956;2023-05-07T05:29:48;1.83;;;1.50;;
39044;SDS011;52192;52.002;5.956;2023-05-07T05:32:13;2.42;;;1.98;;
39044;SDS011;52192;52.002;5.956;2023-05-07T05:34:39;3.15;;;1.90;;
39044;SDS011;52192;52.002;5.956;2023-05-07T05:37:05;1.92;;;1.83;;
39044;SDS011;52192;52.002;5.956;2023-05-07T05:39:31;5.88;;;2.85;;
39044;SDS011;52192;52.002;5.956;2023-05-07T05:41:56;3.28;;;2.13;;
39044;SDS011;52192;52.002;5.956;2023-05-07T05:44:22;2.25;;;1.60;;
39044;SDS011;52192;52.002;5.956;2023-05-07T05:46:48;2.67;;;1.80;;
39044;SDS011;52192;52.002;5.956;2023-05-07T05:49:14;4.97;;;2.03;;
39044;SDS011;52192;52.002;5.956;2023-05-07T05:51:40;2.00;;;1.77;;
39044;SDS011;52192;52.002;5.956;2023-05-07T05:54:06;2.33;;;1.70;;
39044;SDS011;52192;52.002;5.956;2023-05-07T05:56:32;1.73;;;1.63;;
39044;SDS011;52192;52.002;5.956;2023-05-07T05:58:58;3.47;;;1.73;;
39044;SDS011;52192;52.002;5.956;2023-05-07T06:01:24;4.05;;;2.00;;
39044;SDS011;52192;52.002;5.956;2023-05-07T06:03:49;3.13;;;1.85;;
39044;SDS011;52192;52.002;5.956;2023-05-07T06:06:15;2.17;;;1.90;;
39044;SDS011;52192;52.002;5.956;2023-05-07T06:08:41;3.47;;;2.25;;
39044;SDS011;52192;52.002;5.956;2023-05-07T06:11:07;2.90;;;1.92;;
39044;SDS011;52192;52.002;5.956;2023-05-07T06:13:33;3.08;;;2.03;;
39044;SDS011;52192;52.002;5.956;2023-05-07T06:15:58;1.80;;;1.65;;
39044;SDS011;52192;52.002;5.956;2023-05-07T06:18:24;2.90;;;1.85;;
39044;SDS011;52192;52.002;5.956;2023-05-07T06:20:51;2.70;;;1.98;;
39044;SDS011;52192;52.002;5.956;2023-05-07T06:23:17;4.03;;;2.22;;
39044;SDS011;52192;52.002;5.956;2023-05-07T06:25:45;1.65;;;1.52;;
39044;SDS011;52192;52.002;5.956;2023-05-07T06:28:13;2.13;;;1.92;;
39044;SDS011;52192;52.002;5.956;2023-05-07T06:30:39;2.30;;;1.73;;
39044;SDS011;52192;52.002;5.956;2023-05-07T06:33:05;2.10;;;1.80;;
39044;SDS011;52192;52.002;5.956;2023-05-07T06:35:31;3.88;;;2.00;;
39044;SDS011;52192;52.002;5.956;2023-05-07T06:37:56;2.15;;;1.80;;
39044;SDS011;52192;52.002;5.956;2023-05-07T06:40:22;3.55;;;1.90;;
39044;SDS011;52192;52.002;5.956;2023-05-07T06:42:48;2.38;;;2.03;;
39044;SDS011;52192;52.002;5.956;2023-05-07T06:45:13;3.50;;;2.35;;
39044;SDS011;52192;52.002;5.956;2023-05-07T06:47:39;4.03;;;3.03;;
39044;SDS011;52192;52.002;5.956;2023-05-07T06:50:05;6.22;;;2.92;;
39044;SDS011;52192;52.002;5.956;2023-05-07T06:52:31;5.22;;;2.60;;
39044;SDS011;52192;52.002;5.956;2023-05-07T06:54:57;3.78;;;2.80;;
39044;SDS011;52192;52.002;5.956;2023-05-07T06:57:23;2.63;;;1.88;;
39044;SDS011;52192;52.002;5.956;2023-05-07T06:59:49;3.38;;;2.30;;
39044;SDS011;52192;52.002;5.956;2023-05-07T07:02:15;2.17;;;1.90;;
39044;SDS011;52192;52.002;5.956;2023-05-07T07:04:41;2.90;;;1.95;;
39044;SDS011;52192;52.002;5.956;2023-05-07T07:07:07;4.03;;;2.65;;
39044;SDS011;52192;52.002;5.956;2023-05-07T07:09:32;3.28;;;2.25;;
39044;SDS011;52192;52.002;5.956;2023-05-07T07:11:58;2.83;;;2.35;;
39044;SDS011;52192;52.002;5.956;2023-05-07T07:14:24;4.78;;;2.70;;
39044;SDS011;52192;52.002;5.956;2023-05-07T07:16:50;4.20;;;2.30;;
39044;SDS011;52192;52.002;5.956;2023-05-07T07:19:16;4.43;;;3.03;;
39044;SDS011;52192;52.002;5.956;2023-05-07T07:21:42;3.22;;;2.35;;
39044;SDS011;52192;52.002;5.956;2023-05-07T07:24:08;3.75;;;2.72;;
39044;SDS011;52192;52.002;5.956;2023-05-07T07:26:33;3.55;;;2.50;;
39044;SDS011;52192;52.002;5.956;2023-05-07T07:28:59;2.53;;;2.20;;
39044;SDS011;52192;52.002;5.956;2023-05-07T07:31:25;2.72;;;1.98;;
39044;SDS011;52192;52.002;5.956;2023-05-07T07:33:51;2.38;;;1.70;;
39044;SDS011;52192;52.002;5.956;2023-05-07T07:36:16;3.75;;;2.60;;
39044;SDS011;52192;52.002;5.956;2023-05-07T07:38:42;4.32;;;2.58;;
39044;SDS011;52192;52.002;5.956;2023-05-07T07:41:08;4.00;;;2.65;;
39044;SDS011;52192;52.002;5.956;2023-05-07T07:43:34;3.78;;;2.80;;
39044;SDS011;52192;52.002;5.956;2023-05-07T07:46:00;5.07;;;3.33;;
39044;SDS011;52192;52.002;5.956;2023-05-07T07:48:26;4.43;;;2.55;;
39044;SDS011;52192;52.002;5.956;2023-05-07T07:50:52;5.43;;;3.15;;
39044;SDS011;52192;52.002;5.956;2023-05-07T07:53:17;3.95;;;2.60;;
39044;SDS011;52192;52.002;5.956;2023-05-07T07:55:43;4.72;;;2.58;;
39044;SDS011;52192;52.002;5.956;2023-05-07T07:58:09;4.45;;;2.75;;
39044;SDS011;52192;52.002;5.956;2023-05-07T08:00:35;4.70;;;2.70;;
39044;SDS011;52192;52.002;5.956;2023-05-07T08:03:01;3.63;;;2.47;;
39044;SDS011;52192;52.002;5.956;2023-05-07T08:05:28;9.07;;;2.88;;
39044;SDS011;52192;52.002;5.956;2023-05-07T08:07:54;4.30;;;3.05;;
39044;SDS011;52192;52.002;5.956;2023-05-07T08:10:21;2.97;;;2.20;;
39044;SDS011;52192;52.002;5.956;2023-05-07T08:12:48;3.83;;;2.30;;
39044;SDS011;52192;52.002;5.956;2023-05-07T08:15:14;3.85;;;3.03;;
39044;SDS011;52192;52.002;5.956;2023-05-07T08:17:40;3.78;;;2.88;;
39044;SDS011;52192;52.002;5.956;2023-05-07T08:20:07;3.55;;;2.85;;
39044;SDS011;52192;52.002;5.956;2023-05-07T08:22:36;4.90;;;2.38;;
39044;SDS011;52192;52.002;5.956;2023-05-07T08:25:02;3.63;;;2.60;;
39044;SDS011;52192;52.002;5.956;2023-05-07T08:27:28;3.97;;;3.00;;
39044;SDS011;52192;52.002;5.956;2023-05-07T08:29:54;4.25;;;2.85;;
39044;SDS011;52192;52.002;5.956;2023-05-07T08:32:20;4.60;;;2.78;;
39044;SDS011;52192;52.002;5.956;2023-05-07T08:34:46;4.13;;;2.53;;
39044;SDS011;52192;52.002;5.956;2023-05-07T08:37:15;3.42;;;2.20;;
39044;SDS011;52192;52.002;5.956;2023-05-07T08:39:41;3.63;;;2.78;;
39044;SDS011;52192;52.002;5.956;2023-05-07T08:42:07;3.35;;;1.92;;
39044;SDS011;52192;52.002;5.956;2023-05-07T08:44:34;5.43;;;2.90;;
39044;SDS011;52192;52.002;5.956;2023-05-07T08:47:01;4.15;;;2.75;;
39044;SDS011;52192;52.002;5.956;2023-05-07T08:49:27;4.03;;;2.70;;
39044;SDS011;52192;52.002;5.956;2023-05-07T08:51:53;3.30;;;2.22;;
39044;SDS011;52192;52.002;5.956;2023-05-07T08:54:22;3.25;;;2.00;;
39044;SDS011;52192;52.002;5.956;2023-05-07T08:56:49;3.97;;;2.40;;
39044;SDS011;52192;52.002;5.956;2023-05-07T08:59:18;3.63;;;2.65;;
39044;SDS011;52192;52.002;5.956;2023-05-07T09:01:44;3.08;;;2.60;;
39044;SDS011;52192;52.002;5.956;2023-05-07T09:04:10;3.40;;;2.10;;
39044;SDS011;52192;52.002;5.956;2023-05-07T09:06:37;4.95;;;2.72;;
39044;SDS011;52192;52.002;5.956;2023-05-07T09:09:07;4.05;;;2.65;;
39044;SDS011;52192;52.002;5.956;2023-05-07T09:11:33;3.70;;;2.40;;
39044;SDS011;52192;52.002;5.956;2023-05-07T09:13:58;4.68;;;2.80;;
39044;SDS011;52192;52.002;5.956;2023-05-07T09:16:26;2.95;;;2.53;;
39044;SDS011;52192;52.002;5.956;2023-05-07T09:18:54;4.40;;;2.50;;
39044;SDS011;52192;52.002;5.956;2023-05-07T09:21:20;4.68;;;2.97;;
39044;SDS011;52192;52.002;5.956;2023-05-07T09:23:51;3.92;;;2.70;;
39044;SDS011;52192;52.002;5.956;2023-05-07T09:26:17;3.63;;;2.22;;
39044;SDS011;52192;52.002;5.956;2023-05-07T09:28:43;2.50;;;1.80;;
39044;SDS011;52192;52.002;5.956;2023-05-07T09:31:11;5.90;;;2.90;;
39044;SDS011;52192;52.002;5.956;2023-05-07T09:33:38;5.10;;;3.25;;
39044;SDS011;52192;52.002;5.956;2023-05-07T09:36:05;3.63;;;2.85;;
39044;SDS011;52192;52.002;5.956;2023-05-07T09:38:32;4.68;;;2.22;;
39044;SDS011;52192;52.002;5.956;2023-05-07T09:41:08;5.80;;;2.35;;
39044;SDS011;52192;52.002;5.956;2023-05-07T09:43:38;2.22;;;1.63;;
39044;SDS011;52192;52.002;5.956;2023-05-07T09:46:15;3.05;;;2.08;;
39044;SDS011;52192;52.002;5.956;2023-05-07T09:48:42;3.08;;;1.90;;
39044;SDS011;52192;52.002;5.956;2023-05-07T09:51:17;3.33;;;2.72;;
39044;SDS011;52192;52.002;5.956;2023-05-07T09:53:56;3.67;;;2.22;;
39044;SDS011;52192;52.002;5.956;2023-05-07T09:56:25;5.22;;;2.70;;
39044;SDS011;52192;52.002;5.956;2023-05-07T09:58:52;2.58;;;1.80;;
39044;SDS011;52192;52.002;5.956;2023-05-07T10:01:21;3.45;;;2.05;;
39044;SDS011;52192;52.002;5.956;2023-05-07T10:03:48;3.00;;;2.50;;
39044;SDS011;52192;52.002;5.956;2023-05-07T10:06:16;4.78;;;2.35;;
39044;SDS011;52192;52.002;5.956;2023-05-07T10:08:43;2.40;;;1.70;;
39044;SDS011;52192;52.002;5.956;2023-05-07T10:11:09;1.60;;;1.27;;
39044;SDS011;52192;52.002;5.956;2023-05-07T10:13:35;4.57;;;2.53;;
39044;SDS011;52192;52.002;5.956;2023-05-07T10:16:03;3.05;;;1.90;;
39044;SDS011;52192;52.002;5.956;2023-05-07T10:18:32;2.83;;;2.05;;
39044;SDS011;52192;52.002;5.956;2023-05-07T10:21:01;1.75;;;1.50;;
39044;SDS011;52192;52.002;5.956;2023-05-07T10:23:32;2.63;;;1.77;;
39044;SDS011;52192;52.002;5.956;2023-05-07T10:26:03;3.50;;;2.42;;
39044;SDS011;52192;52.002;5.956;2023-05-07T10:28:36;2.72;;;1.77;;
39044;SDS011;52192;52.002;5.956;2023-05-07T10:31:15;1.70;;;1.40;;
39044;SDS011;52192;52.002;5.956;2023-05-07T10:33:54;3.95;;;2.00;;
39044;SDS011;52192;52.002;5.956;2023-05-07T10:36:22;2.22;;;1.90;;
39044;SDS011;52192;52.002;5.956;2023-05-07T10:38:48;4.53;;;2.20;;
39044;SDS011;52192;52.002;5.956;2023-05-07T10:41:15;3.72;;;1.85;;
39044;SDS011;52192;52.002;5.956;2023-05-07T10:43:44;2.70;;;1.92;;
39044;SDS011;52192;52.002;5.956;2023-05-07T10:46:17;2.70;;;2.25;;
39044;SDS011;52192;52.002;5.956;2023-05-07T10:51:28;2.78;;;1.83;;
39044;SDS011;52192;52.002;5.956;2023-05-07T10:56:38;2.33;;;1.55;;
39044;SDS011;52192;52.002;5.956;2023-05-07T11:01:50;5.78;;;2.30;;
39044;SDS011;52192;52.002;5.956;2023-05-07T11:04:20;2.58;;;2.17;;
39044;SDS011;52192;52.002;5.956;2023-05-07T11:12:18;3.00;;;2.17;;
39044;SDS011;52192;52.002;5.956;2023-05-07T11:15:06;2.78;;;2.35;;
39044;SDS011;52192;52.002;5.956;2023-05-07T11:17:33;2.95;;;1.92;;
39044;SDS011;52192;52.002;5.956;2023-05-07T11:20:00;7.50;;;2.03;;
39044;SDS011;52192;52.002;5.956;2023-05-07T11:24:56;1.92;;;1.60;;
39044;SDS011;52192;52.002;5.956;2023-05-07T11:27:24;2.00;;;1.10;;
39044;SDS011;52192;52.002;5.956;2023-05-07T11:29:51;1.65;;;1.38;;
39044;SDS011;52192;52.002;5.956;2023-05-07T11:32:22;2.28;;;1.48;;
39044;SDS011;52192;52.002;5.956;2023-05-07T11:34:57;2.63;;;1.80;;
39044;SDS011;52192;52.002;5.956;2023-05-07T11:37:26;2.20;;;1.73;;
39044;SDS011;52192;52.002;5.956;2023-05-07T11:40:07;2.00;;;1.83;;
39044;SDS011;52192;52.002;5.956;2023-05-07T11:42:36;2.63;;;2.08;;
39044;SDS011;52192;52.002;5.956;2023-05-07T11:45:03;1.65;;;1.55;;
39044;SDS011;52192;52.002;5.956;2023-05-07T11:47:30;1.83;;;1.48;;
39044;SDS011;52192;52.002;5.956;2023-05-07T11:49:57;2.53;;;1.70;;
39044;SDS011;52192;52.002;5.956;2023-05-07T11:52:32;1.65;;;1.55;;
39044;SDS011;52192;52.002;5.956;2023-05-07T11:54:58;1.70;;;1.33;;
39044;SDS011;52192;52.002;5.956;2023-05-07T11:57:26;1.67;;;1.30;;
39044;SDS011;52192;52.002;5.956;2023-05-07T11:59:55;1.42;;;1.30;;
39044;SDS011;52192;52.002;5.956;2023-05-07T12:02:22;2.67;;;2.33;;
39044;SDS011;52192;52.002;5.956;2023-05-07T12:04:50;3.50;;;1.70;;
39044;SDS011;52192;52.002;5.956;2023-05-07T12:07:19;1.85;;;1.40;;
39044;SDS011;52192;52.002;5.956;2023-05-07T12:09:45;1.83;;;1.30;;
39044;SDS011;52192;52.002;5.956;2023-05-07T12:12:12;2.13;;;1.77;;
39044;SDS011;52192;52.002;5.956;2023-05-07T12:14:43;2.78;;;1.88;;
39044;SDS011;52192;52.002;5.956;2023-05-07T12:17:10;2.33;;;1.52;;
39044;SDS011;52192;52.002;5.956;2023-05-07T12:19:38;2.70;;;1.95;;
39044;SDS011;52192;52.002;5.956;2023-05-07T12:22:05;2.00;;;1.85;;
39044;SDS011;52192;52.002;5.956;2023-05-07T12:27:09;2.83;;;1.92;;
39044;SDS011;52192;52.002;5.956;2023-05-07T12:29:35;1.48;;;1.38;;
39044;SDS011;52192;52.002;5.956;2023-05-07T12:32:04;1.90;;;1.42;;
39044;SDS011;52192;52.002;5.956;2023-05-07T12:34:31;2.05;;;1.55;;
39044;SDS011;52192;52.002;5.956;2023-05-07T12:36:57;2.28;;;1.92;;
39044;SDS011;52192;52.002;5.956;2023-05-07T12:39:28;1.58;;;1.30;;
39044;SDS011;52192;52.002;5.956;2023-05-07T12:41:58;1.65;;;1.30;;
39044;SDS011;52192;52.002;5.956;2023-05-07T12:44:34;1.85;;;1.30;;
39044;SDS011;52192;52.002;5.956;2023-05-07T12:47:03;1.20;;;0.88;;
39044;SDS011;52192;52.002;5.956;2023-05-07T12:49:29;1.90;;;1.30;;
39044;SDS011;52192;52.002;5.956;2023-05-07T12:51:55;1.80;;;1.45;;
39044;SDS011;52192;52.002;5.956;2023-05-07T12:54:30;1.95;;;0.98;;
39044;SDS011;52192;52.002;5.956;2023-05-07T12:57:01;1.77;;;1.35;;
39044;SDS011;52192;52.002;5.956;2023-05-07T12:59:41;2.05;;;1.60;;
39044;SDS011;52192;52.002;5.956;2023-05-07T13:02:07;1.98;;;1.23;;
39044;SDS011;52192;52.002;5.956;2023-05-07T13:04:34;2.28;;;1.33;;
39044;SDS011;52192;52.002;5.956;2023-05-07T13:07:00;1.30;;;1.20;;
39044;SDS011;52192;52.002;5.956;2023-05-07T13:09:27;4.97;;;1.40;;
39044;SDS011;52192;52.002;5.956;2023-05-07T13:11:54;1.70;;;1.30;;
39044;SDS011;52192;52.002;5.956;2023-05-07T13:17:42;1.75;;;1.42;;
39044;SDS011;52192;52.002;5.956;2023-05-07T13:20:09;1.70;;;1.40;;
39044;SDS011;52192;52.002;5.956;2023-05-07T13:22:37;1.80;;;1.38;;
39044;SDS011;52192;52.002;5.956;2023-05-07T13:25:03;2.70;;;1.42;;
39044;SDS011;52192;52.002;5.956;2023-05-07T13:27:30;1.33;;;1.10;;
39044;SDS011;52192;52.002;5.956;2023-05-07T13:29:56;1.90;;;1.17;;
39044;SDS011;52192;52.002;5.956;2023-05-07T13:32:22;1.20;;;1.05;;
39044;SDS011;52192;52.002;5.956;2023-05-07T13:34:47;2.22;;;1.30;;
39044;SDS011;52192;52.002;5.956;2023-05-07T13:37:13;1.67;;;1.20;;
39044;SDS011;52192;52.002;5.956;2023-05-07T13:39:39;1.65;;;1.35;;
39044;SDS011;52192;52.002;5.956;2023-05-07T13:42:05;1.67;;;1.33;;
39044;SDS011;52192;52.002;5.956;2023-05-07T13:44:34;1.13;;;1.02;;
39044;SDS011;52192;52.002;5.956;2023-05-07T13:47:00;2.13;;;1.45;;
39044;SDS011;52192;52.002;5.956;2023-05-07T13:49:26;3.70;;;1.65;;
39044;SDS011;52192;52.002;5.956;2023-05-07T13:51:55;2.85;;;1.60;;
39044;SDS011;52192;52.002;5.956;2023-05-07T13:54:21;1.83;;;1.70;;
39044;SDS011;52192;52.002;5.956;2023-05-07T13:56:46;3.35;;;1.95;;
39044;SDS011;52192;52.002;5.956;2023-05-07T14:02:17;1.65;;;1.55;;
39044;SDS011;52192;52.002;5.956;2023-05-07T14:04:43;1.40;;;1.30;;
39044;SDS011;52192;52.002;5.956;2023-05-07T14:07:10;2.97;;;1.05;;
39044;SDS011;52192;52.002;5.956;2023-05-07T14:09:37;1.63;;;1.15;;
39044;SDS011;52192;52.002;5.956;2023-05-07T14:12:03;0.82;;;0.82;;
39044;SDS011;52192;52.002;5.956;2023-05-07T14:14:29;1.55;;;1.33;;
39044;SDS011;52192;52.002;5.956;2023-05-07T14:16:54;1.10;;;1.00;;
39044;SDS011;52192;52.002;5.956;2023-05-07T14:19:21;1.08;;;1.00;;
39044;SDS011;52192;52.002;5.956;2023-05-07T14:21:47;1.30;;;1.13;;
39044;SDS011;52192;52.002;5.956;2023-05-07T14:24:14;2.13;;;1.40;;
39044;SDS011;52192;52.002;5.956;2023-05-07T14:26:39;1.48;;;1.30;;
39044;SDS011;52192;52.002;5.956;2023-05-07T14:29:05;2.17;;;1.52;;
39044;SDS011;52192;52.002;5.956;2023-05-07T14:31:31;1.95;;;1.48;;
39044;SDS011;52192;52.002;5.956;2023-05-07T14:33:58;2.22;;;1.60;;
39044;SDS011;52192;52.002;5.956;2023-05-07T14:36:24;2.15;;;1.60;;
39044;SDS011;52192;52.002;5.956;2023-05-07T14:38:55;2.75;;;1.05;;
39044;SDS011;52192;52.002;5.956;2023-05-07T14:41:24;1.20;;;1.10;;
39044;SDS011;52192;52.002;5.956;2023-05-07T14:43:50;1.67;;;1.15;;
39044;SDS011;52192;52.002;5.956;2023-05-07T14:46:16;1.95;;;1.05;;
39044;SDS011;52192;52.002;5.956;2023-05-07T14:48:43;1.05;;;0.95;;
39044;SDS011;52192;52.002;5.956;2023-05-07T14:51:12;1.33;;;0.93;;
39044;SDS011;52192;52.002;5.956;2023-05-07T14:53:38;1.30;;;0.82;;
39044;SDS011;52192;52.002;5.956;2023-05-07T14:56:05;0.93;;;0.80;;
39044;SDS011;52192;52.002;5.956;2023-05-07T14:58:31;2.35;;;1.25;;
39044;SDS011;52192;52.002;5.956;2023-05-07T15:00:57;2.17;;;0.85;;
39044;SDS011;52192;52.002;5.956;2023-05-07T15:03:24;1.13;;;0.90;;
39044;SDS011;52192;52.002;5.956;2023-05-07T15:05:50;0.88;;;0.88;;
39044;SDS011;52192;52.002;5.956;2023-05-07T15:08:16;0.90;;;0.88;;
39044;SDS011;52192;52.002;5.956;2023-05-07T15:10:42;0.68;;;0.68;;